sensor_id;sensor_type;location;lat;lon;timestamp;P1;durP1;ratioP1;P2;durP2;ratioP2
22417;SDS011;11376;50.932;4.442;2023-04-12T00:00:10;3.20;;;0.73;;
22417;SDS011;11376;50.932;4.442;2023-04-12T00:02:37;3.27;;;0.70;;
22417;SDS011;11376;50.932;4.442;2023-04-12T00:05:03;4.00;;;0.80;;
22417;SDS011;11376;50.932;4.442;2023-04-12T00:07:29;1.77;;;0.60;;
22417;SDS011;11376;50.932;4.442;2023-04-12T00:09:54;4.37;;;0.90;;
22417;SDS011;11376;50.932;4.442;2023-04-12T00:12:20;2.40;;;0.73;;
22417;SDS011;11376;50.932;4.442;2023-04-12T00:14:46;3.67;;;0.70;;
22417;SDS011;11376;50.932;4.442;2023-04-12T00:17:11;5.13;;;0.80;;
22417;SDS011;11376;50.932;4.442;2023-04-12T00:19:37;3.90;;;0.60;;
22417;SDS011;11376;50.932;4.442;2023-04-12T00:22:09;2.73;;;0.90;;
22417;SDS011;11376;50.932;4.442;2023-04-12T00:24:37;2.87;;;0.80;;
22417;SDS011;11376;50.932;4.442;2023-04-12T00:27:03;2.20;;;0.43;;
22417;SDS011;11376;50.932;4.442;2023-04-12T00:29:29;2.70;;;0.80;;
22417;SDS011;11376;50.932;4.442;2023-04-12T00:31:55;4.27;;;0.60;;
22417;SDS011;11376;50.932;4.442;2023-04-12T00:34:21;2.37;;;0.60;;
22417;SDS011;11376;50.932;4.442;2023-04-12T00:36:47;3.07;;;0.80;;
22417;SDS011;11376;50.932;4.442;2023-04-12T00:39:13;4.37;;;0.70;;
22417;SDS011;11376;50.932;4.442;2023-04-12T00:41:39;5.23;;;0.70;;
22417;SDS011;11376;50.932;4.442;2023-04-12T00:44:05;1.43;;;0.40;;
22417;SDS011;11376;50.932;4.442;2023-04-12T00:46:31;2.67;;;0.83;;
22417;SDS011;11376;50.932;4.442;2023-04-12T00:48:57;4.03;;;0.67;;
22417;SDS011;11376;50.932;4.442;2023-04-12T00:51:23;2.50;;;0.60;;
22417;SDS011;11376;50.932;4.442;2023-04-12T00:53:50;5.03;;;0.90;;
22417;SDS011;11376;50.932;4.442;2023-04-12T00:56:17;4.40;;;0.93;;
22417;SDS011;11376;50.932;4.442;2023-04-12T00:58:47;3.57;;;0.67;;
22417;SDS011;11376;50.932;4.442;2023-04-12T01:01:13;2.73;;;0.70;;
22417;SDS011;11376;50.932;4.442;2023-04-12T01:03:41;2.60;;;0.80;;
22417;SDS011;11376;50.932;4.442;2023-04-12T01:06:12;3.27;;;0.60;;
22417;SDS011;11376;50.932;4.442;2023-04-12T01:11:42;2.50;;;0.90;;
22417;SDS011;11376;50.932;4.442;2023-04-12T01:14:27;3.53;;;0.50;;
22417;SDS011;11376;50.932;4.442;2023-04-12T01:17:00;3.87;;;0.90;;
22417;SDS011;11376;50.932;4.442;2023-04-12T01:27:48;6.37;;;1.13;;
22417;SDS011;11376;50.932;4.442;2023-04-12T01:30:18;3.37;;;0.80;;
22417;SDS011;11376;50.932;4.442;2023-04-12T01:32:48;2.87;;;0.77;;
22417;SDS011;11376;50.932;4.442;2023-04-12T01:35:16;4.10;;;0.80;;
22417;SDS011;11376;50.932;4.442;2023-04-12T01:37:44;5.27;;;0.90;;
22417;SDS011;11376;50.932;4.442;2023-04-12T01:40:10;7.03;;;1.30;;
22417;SDS011;11376;50.932;4.442;2023-04-12T01:42:37;5.23;;;0.97;;
22417;SDS011;11376;50.932;4.442;2023-04-12T01:45:03;4.67;;;1.00;;
22417;SDS011;11376;50.932;4.442;2023-04-12T01:47:29;3.17;;;0.60;;
22417;SDS011;11376;50.932;4.442;2023-04-12T01:52:25;3.03;;;0.80;;
22417;SDS011;11376;50.932;4.442;2023-04-12T01:54:56;4.20;;;0.80;;
22417;SDS011;11376;50.932;4.442;2023-04-12T01:57:22;4.47;;;0.87;;
22417;SDS011;11376;50.932;4.442;2023-04-12T01:59:49;3.90;;;0.73;;
22417;SDS011;11376;50.932;4.442;2023-04-12T02:02:17;5.47;;;0.97;;
22417;SDS011;11376;50.932;4.442;2023-04-12T02:04:44;4.40;;;0.70;;
22417;SDS011;11376;50.932;4.442;2023-04-12T02:07:10;2.80;;;0.87;;
22417;SDS011;11376;50.932;4.442;2023-04-12T02:09:38;2.47;;;0.60;;
22417;SDS011;11376;50.932;4.442;2023-04-12T02:12:08;1.87;;;0.80;;
22417;SDS011;11376;50.932;4.442;2023-04-12T02:14:34;4.60;;;0.90;;
22417;SDS011;11376;50.932;4.442;2023-04-12T02:16:59;4.23;;;0.70;;
22417;SDS011;11376;50.932;4.442;2023-04-12T02:19:28;5.20;;;0.90;;
22417;SDS011;11376;50.932;4.442;2023-04-12T02:21:54;1.83;;;0.70;;
22417;SDS011;11376;50.932;4.442;2023-04-12T02:24:20;4.43;;;0.80;;
22417;SDS011;11376;50.932;4.442;2023-04-12T02:26:45;3.73;;;0.70;;
22417;SDS011;11376;50.932;4.442;2023-04-12T02:29:13;2.80;;;0.73;;
22417;SDS011;11376;50.932;4.442;2023-04-12T02:31:39;4.60;;;0.70;;
22417;SDS011;11376;50.932;4.442;2023-04-12T02:34:05;4.17;;;0.80;;
22417;SDS011;11376;50.932;4.442;2023-04-12T02:36:31;2.10;;;0.77;;
22417;SDS011;11376;50.932;4.442;2023-04-12T02:38:57;2.30;;;0.80;;
22417;SDS011;11376;50.932;4.442;2023-04-12T02:41:22;3.70;;;0.67;;
22417;SDS011;11376;50.932;4.442;2023-04-12T02:43:49;1.53;;;0.70;;
22417;SDS011;11376;50.932;4.442;2023-04-12T02:46:19;4.40;;;0.73;;
22417;SDS011;11376;50.932;4.442;2023-04-12T02:48:47;4.83;;;1.00;;
22417;SDS011;11376;50.932;4.442;2023-04-12T02:51:13;2.17;;;0.70;;
22417;SDS011;11376;50.932;4.442;2023-04-12T02:53:38;6.30;;;0.97;;
22417;SDS011;11376;50.932;4.442;2023-04-12T02:56:04;6.47;;;1.20;;
22417;SDS011;11376;50.932;4.442;2023-04-12T02:58:30;4.63;;;1.00;;
22417;SDS011;11376;50.932;4.442;2023-04-12T03:00:58;3.53;;;0.90;;
22417;SDS011;11376;50.932;4.442;2023-04-12T03:03:31;3.40;;;0.77;;
22417;SDS011;11376;50.932;4.442;2023-04-12T03:05:57;4.70;;;0.97;;
22417;SDS011;11376;50.932;4.442;2023-04-12T03:08:23;3.33;;;0.90;;
22417;SDS011;11376;50.932;4.442;2023-04-12T03:10:49;3.33;;;0.80;;
22417;SDS011;11376;50.932;4.442;2023-04-12T03:13:14;4.23;;;1.03;;
22417;SDS011;11376;50.932;4.442;2023-04-12T03:15:40;3.17;;;1.00;;
22417;SDS011;11376;50.932;4.442;2023-04-12T03:18:07;4.97;;;1.00;;
22417;SDS011;11376;50.932;4.442;2023-04-12T03:20:33;3.00;;;0.50;;
22417;SDS011;11376;50.932;4.442;2023-04-12T03:22:59;5.60;;;0.70;;
22417;SDS011;11376;50.932;4.442;2023-04-12T03:25:25;2.40;;;0.70;;
22417;SDS011;11376;50.932;4.442;2023-04-12T03:27:51;4.27;;;0.90;;
22417;SDS011;11376;50.932;4.442;2023-04-12T03:30:16;7.03;;;1.00;;
22417;SDS011;11376;50.932;4.442;2023-04-12T03:32:42;2.57;;;0.70;;
22417;SDS011;11376;50.932;4.442;2023-04-12T03:35:08;1.87;;;0.60;;
22417;SDS011;11376;50.932;4.442;2023-04-12T03:37:34;3.57;;;0.90;;
22417;SDS011;11376;50.932;4.442;2023-04-12T03:40:00;2.70;;;0.70;;
22417;SDS011;11376;50.932;4.442;2023-04-12T03:42:29;2.70;;;0.53;;
22417;SDS011;11376;50.932;4.442;2023-04-12T03:44:55;2.63;;;0.60;;
22417;SDS011;11376;50.932;4.442;2023-04-12T03:47:20;2.47;;;0.53;;
22417;SDS011;11376;50.932;4.442;2023-04-12T03:49:46;2.33;;;0.67;;
22417;SDS011;11376;50.932;4.442;2023-04-12T03:52:12;4.10;;;0.77;;
22417;SDS011;11376;50.932;4.442;2023-04-12T03:54:37;1.50;;;0.50;;
22417;SDS011;11376;50.932;4.442;2023-04-12T03:57:03;1.83;;;0.60;;
22417;SDS011;11376;50.932;4.442;2023-04-12T03:59:29;2.37;;;0.60;;
22417;SDS011;11376;50.932;4.442;2023-04-12T04:01:56;3.47;;;0.60;;
22417;SDS011;11376;50.932;4.442;2023-04-12T04:04:24;1.93;;;0.40;;
22417;SDS011;11376;50.932;4.442;2023-04-12T04:06:49;2.40;;;0.50;;
22417;SDS011;11376;50.932;4.442;2023-04-12T04:09:16;3.40;;;0.43;;
22417;SDS011;11376;50.932;4.442;2023-04-12T04:11:41;2.07;;;0.70;;
22417;SDS011;11376;50.932;4.442;2023-04-12T04:14:07;7.23;;;0.70;;
22417;SDS011;11376;50.932;4.442;2023-04-12T04:16:33;2.90;;;0.60;;
22417;SDS011;11376;50.932;4.442;2023-04-12T04:18:58;3.17;;;0.80;;
22417;SDS011;11376;50.932;4.442;2023-04-12T04:21:24;2.90;;;0.70;;
22417;SDS011;11376;50.932;4.442;2023-04-12T04:23:50;3.57;;;0.67;;
22417;SDS011;11376;50.932;4.442;2023-04-12T04:26:16;2.57;;;0.60;;
22417;SDS011;11376;50.932;4.442;2023-04-12T04:28:42;4.97;;;0.80;;
22417;SDS011;11376;50.932;4.442;2023-04-12T04:31:11;2.77;;;0.63;;
22417;SDS011;11376;50.932;4.442;2023-04-12T04:33:38;1.33;;;0.40;;
22417;SDS011;11376;50.932;4.442;2023-04-12T04:36:04;4.30;;;0.70;;
22417;SDS011;11376;50.932;4.442;2023-04-12T04:38:31;2.03;;;0.60;;
22417;SDS011;11376;50.932;4.442;2023-04-12T04:40:58;2.00;;;0.70;;
22417;SDS011;11376;50.932;4.442;2023-04-12T04:43:27;3.30;;;0.60;;
22417;SDS011;11376;50.932;4.442;2023-04-12T04:45:57;3.23;;;0.63;;
22417;SDS011;11376;50.932;4.442;2023-04-12T04:48:25;2.23;;;0.77;;
22417;SDS011;11376;50.932;4.442;2023-04-12T04:50:50;2.33;;;0.60;;
22417;SDS011;11376;50.932;4.442;2023-04-12T04:53:17;0.70;;;0.30;;
22417;SDS011;11376;50.932;4.442;2023-04-12T04:55:43;2.37;;;0.60;;
22417;SDS011;11376;50.932;4.442;2023-04-12T04:58:09;1.63;;;0.50;;
22417;SDS011;11376;50.932;4.442;2023-04-12T05:00:35;3.70;;;0.70;;
22417;SDS011;11376;50.932;4.442;2023-04-12T05:03:02;6.13;;;0.80;;
22417;SDS011;11376;50.932;4.442;2023-04-12T05:05:28;3.17;;;0.83;;
22417;SDS011;11376;50.932;4.442;2023-04-12T05:07:54;3.60;;;0.90;;
22417;SDS011;11376;50.932;4.442;2023-04-12T05:10:21;3.13;;;1.13;;
22417;SDS011;11376;50.932;4.442;2023-04-12T05:12:46;2.87;;;1.40;;
22417;SDS011;11376;50.932;4.442;2023-04-12T05:15:12;3.37;;;1.27;;
22417;SDS011;11376;50.932;4.442;2023-04-12T05:17:38;2.93;;;1.00;;
22417;SDS011;11376;50.932;4.442;2023-04-12T05:20:04;3.37;;;1.20;;
22417;SDS011;11376;50.932;4.442;2023-04-12T05:22:32;2.47;;;0.50;;
22417;SDS011;11376;50.932;4.442;2023-04-12T05:24:58;2.90;;;1.00;;
22417;SDS011;11376;50.932;4.442;2023-04-12T05:27:24;2.97;;;0.93;;
22417;SDS011;11376;50.932;4.442;2023-04-12T05:29:51;2.10;;;0.70;;
22417;SDS011;11376;50.932;4.442;2023-04-12T05:32:17;2.97;;;1.00;;
22417;SDS011;11376;50.932;4.442;2023-04-12T05:34:43;3.77;;;0.87;;
22417;SDS011;11376;50.932;4.442;2023-04-12T05:37:14;6.13;;;1.50;;
22417;SDS011;11376;50.932;4.442;2023-04-12T05:39:40;5.23;;;0.90;;
22417;SDS011;11376;50.932;4.442;2023-04-12T05:42:06;4.73;;;1.00;;
22417;SDS011;11376;50.932;4.442;2023-04-12T05:44:33;4.47;;;1.30;;
22417;SDS011;11376;50.932;4.442;2023-04-12T05:47:03;2.43;;;1.00;;
22417;SDS011;11376;50.932;4.442;2023-04-12T05:49:29;6.50;;;1.30;;
22417;SDS011;11376;50.932;4.442;2023-04-12T05:51:55;4.03;;;1.00;;
22417;SDS011;11376;50.932;4.442;2023-04-12T05:54:21;6.63;;;1.60;;
22417;SDS011;11376;50.932;4.442;2023-04-12T05:56:47;5.97;;;1.40;;
22417;SDS011;11376;50.932;4.442;2023-04-12T05:59:12;6.07;;;1.50;;
22417;SDS011;11376;50.932;4.442;2023-04-12T06:01:38;9.77;;;1.50;;
22417;SDS011;11376;50.932;4.442;2023-04-12T06:04:06;5.73;;;1.63;;
22417;SDS011;11376;50.932;4.442;2023-04-12T06:06:32;8.40;;;1.63;;
22417;SDS011;11376;50.932;4.442;2023-04-12T06:08:58;4.30;;;1.50;;
22417;SDS011;11376;50.932;4.442;2023-04-12T06:11:28;8.23;;;1.43;;
22417;SDS011;11376;50.932;4.442;2023-04-12T06:13:54;6.93;;;1.67;;
22417;SDS011;11376;50.932;4.442;2023-04-12T06:16:19;8.43;;;1.73;;
22417;SDS011;11376;50.932;4.442;2023-04-12T06:18:45;8.73;;;1.70;;
22417;SDS011;11376;50.932;4.442;2023-04-12T06:21:11;7.90;;;1.80;;
22417;SDS011;11376;50.932;4.442;2023-04-12T06:23:37;12.83;;;1.93;;
22417;SDS011;11376;50.932;4.442;2023-04-12T06:26:02;5.57;;;1.50;;
22417;SDS011;11376;50.932;4.442;2023-04-12T06:28:28;10.13;;;1.73;;
22417;SDS011;11376;50.932;4.442;2023-04-12T06:30:54;7.30;;;1.60;;
22417;SDS011;11376;50.932;4.442;2023-04-12T06:33:20;12.17;;;1.83;;
22417;SDS011;11376;50.932;4.442;2023-04-12T06:35:48;10.43;;;1.70;;
22417;SDS011;11376;50.932;4.442;2023-04-12T06:38:14;9.17;;;1.80;;
22417;SDS011;11376;50.932;4.442;2023-04-12T06:40:40;7.27;;;1.30;;
22417;SDS011;11376;50.932;4.442;2023-04-12T06:43:06;14.53;;;1.83;;
22417;SDS011;11376;50.932;4.442;2023-04-12T06:45:32;9.20;;;1.83;;
22417;SDS011;11376;50.932;4.442;2023-04-12T06:47:57;9.03;;;1.70;;
22417;SDS011;11376;50.932;4.442;2023-04-12T06:50:24;10.67;;;1.70;;
22417;SDS011;11376;50.932;4.442;2023-04-12T06:52:50;2.40;;;0.70;;
22417;SDS011;11376;50.932;4.442;2023-04-12T06:55:16;11.93;;;1.60;;
22417;SDS011;11376;50.932;4.442;2023-04-12T06:57:42;5.03;;;1.50;;
22417;SDS011;11376;50.932;4.442;2023-04-12T07:00:08;15.53;;;1.90;;
22417;SDS011;11376;50.932;4.442;2023-04-12T07:02:35;5.87;;;1.40;;
22417;SDS011;11376;50.932;4.442;2023-04-12T07:05:00;13.00;;;1.50;;
22417;SDS011;11376;50.932;4.442;2023-04-12T07:07:26;6.27;;;1.23;;
22417;SDS011;11376;50.932;4.442;2023-04-12T07:09:51;7.20;;;0.67;;
22417;SDS011;11376;50.932;4.442;2023-04-12T07:12:17;6.07;;;1.40;;
22417;SDS011;11376;50.932;4.442;2023-04-12T07:14:43;8.97;;;1.50;;
22417;SDS011;11376;50.932;4.442;2023-04-12T07:17:08;8.70;;;1.43;;
22417;SDS011;11376;50.932;4.442;2023-04-12T07:19:34;9.83;;;1.20;;
22417;SDS011;11376;50.932;4.442;2023-04-12T07:22:00;10.03;;;1.40;;
22417;SDS011;11376;50.932;4.442;2023-04-12T07:24:26;10.27;;;1.77;;
22417;SDS011;11376;50.932;4.442;2023-04-12T07:26:52;5.87;;;1.20;;
22417;SDS011;11376;50.932;4.442;2023-04-12T07:29:20;8.00;;;1.30;;
22417;SDS011;11376;50.932;4.442;2023-04-12T07:31:46;8.97;;;1.87;;
22417;SDS011;11376;50.932;4.442;2023-04-12T07:34:12;5.43;;;1.20;;
22417;SDS011;11376;50.932;4.442;2023-04-12T07:36:37;7.90;;;1.70;;
22417;SDS011;11376;50.932;4.442;2023-04-12T07:39:03;9.03;;;1.50;;
22417;SDS011;11376;50.932;4.442;2023-04-12T07:41:29;11.47;;;1.40;;
22417;SDS011;11376;50.932;4.442;2023-04-12T07:43:54;10.87;;;1.53;;
22417;SDS011;11376;50.932;4.442;2023-04-12T07:46:20;7.07;;;1.73;;
22417;SDS011;11376;50.932;4.442;2023-04-12T07:48:46;9.10;;;1.70;;
22417;SDS011;11376;50.932;4.442;2023-04-12T07:51:11;8.07;;;1.40;;
22417;SDS011;11376;50.932;4.442;2023-04-12T07:53:37;8.67;;;1.40;;
22417;SDS011;11376;50.932;4.442;2023-04-12T07:56:04;11.20;;;1.57;;
22417;SDS011;11376;50.932;4.442;2023-04-12T07:58:31;10.70;;;1.50;;
22417;SDS011;11376;50.932;4.442;2023-04-12T08:00:57;10.10;;;1.53;;
22417;SDS011;11376;50.932;4.442;2023-04-12T08:03:23;10.60;;;1.73;;
22417;SDS011;11376;50.932;4.442;2023-04-12T08:05:48;10.10;;;1.93;;
22417;SDS011;11376;50.932;4.442;2023-04-12T08:08:17;10.67;;;1.57;;
22417;SDS011;11376;50.932;4.442;2023-04-12T08:10:46;9.27;;;1.40;;
22417;SDS011;11376;50.932;4.442;2023-04-12T08:13:13;8.47;;;1.50;;
22417;SDS011;11376;50.932;4.442;2023-04-12T08:15:38;11.23;;;1.70;;
22417;SDS011;11376;50.932;4.442;2023-04-12T08:18:04;9.90;;;1.60;;
22417;SDS011;11376;50.932;4.442;2023-04-12T08:20:30;11.10;;;1.73;;
22417;SDS011;11376;50.932;4.442;2023-04-12T08:22:56;11.50;;;1.90;;
22417;SDS011;11376;50.932;4.442;2023-04-12T08:25:22;10.70;;;1.43;;
22417;SDS011;11376;50.932;4.442;2023-04-12T08:27:48;9.27;;;1.20;;
22417;SDS011;11376;50.932;4.442;2023-04-12T08:30:15;9.10;;;1.60;;
22417;SDS011;11376;50.932;4.442;2023-04-12T08:32:41;7.07;;;1.57;;
22417;SDS011;11376;50.932;4.442;2023-04-12T08:35:07;8.63;;;1.30;;
22417;SDS011;11376;50.932;4.442;2023-04-12T08:37:33;9.43;;;1.47;;
22417;SDS011;11376;50.932;4.442;2023-04-12T08:40:01;14.77;;;2.10;;
22417;SDS011;11376;50.932;4.442;2023-04-12T08:42:30;12.73;;;1.63;;
22417;SDS011;11376;50.932;4.442;2023-04-12T08:44:58;12.17;;;2.20;;
22417;SDS011;11376;50.932;4.442;2023-04-12T08:47:28;11.50;;;1.60;;
22417;SDS011;11376;50.932;4.442;2023-04-12T08:49:54;14.80;;;1.97;;
22417;SDS011;11376;50.932;4.442;2023-04-12T08:52:21;14.47;;;1.90;;
22417;SDS011;11376;50.932;4.442;2023-04-12T08:54:46;13.23;;;1.87;;
22417;SDS011;11376;50.932;4.442;2023-04-12T08:57:12;12.53;;;2.07;;
22417;SDS011;11376;50.932;4.442;2023-04-12T08:59:40;14.20;;;2.10;;
22417;SDS011;11376;50.932;4.442;2023-04-12T09:02:07;11.77;;;1.67;;
22417;SDS011;11376;50.932;4.442;2023-04-12T09:04:33;11.87;;;2.07;;
22417;SDS011;11376;50.932;4.442;2023-04-12T09:07:12;10.80;;;1.70;;
22417;SDS011;11376;50.932;4.442;2023-04-12T09:09:45;9.63;;;1.00;;
22417;SDS011;11376;50.932;4.442;2023-04-12T09:12:12;11.40;;;1.90;;
22417;SDS011;11376;50.932;4.442;2023-04-12T09:14:39;8.03;;;1.57;;
22417;SDS011;11376;50.932;4.442;2023-04-12T09:17:21;7.00;;;1.33;;
22417;SDS011;11376;50.932;4.442;2023-04-12T09:19:51;7.73;;;1.60;;
22417;SDS011;11376;50.932;4.442;2023-04-12T09:22:31;12.33;;;1.63;;
22417;SDS011;11376;50.932;4.442;2023-04-12T09:24:58;11.43;;;1.27;;
22417;SDS011;11376;50.932;4.442;2023-04-12T09:27:23;8.87;;;1.20;;
22417;SDS011;11376;50.932;4.442;2023-04-12T09:29:49;10.97;;;1.70;;
22417;SDS011;11376;50.932;4.442;2023-04-12T09:32:25;10.00;;;1.90;;
22417;SDS011;11376;50.932;4.442;2023-04-12T09:34:54;7.97;;;1.80;;
22417;SDS011;11376;50.932;4.442;2023-04-12T09:37:23;11.27;;;1.70;;
22417;SDS011;11376;50.932;4.442;2023-04-12T09:40:05;8.23;;;1.83;;
22417;SDS011;11376;50.932;4.442;2023-04-12T09:42:33;6.03;;;1.30;;
22417;SDS011;11376;50.932;4.442;2023-04-12T09:45:00;10.03;;;1.43;;
22417;SDS011;11376;50.932;4.442;2023-04-12T09:47:42;9.67;;;1.67;;
22417;SDS011;11376;50.932;4.442;2023-04-12T09:50:07;11.83;;;1.97;;
22417;SDS011;11376;50.932;4.442;2023-04-12T09:52:43;14.37;;;2.17;;
22417;SDS011;11376;50.932;4.442;2023-04-12T09:55:09;11.03;;;1.77;;
22417;SDS011;11376;50.932;4.442;2023-04-12T09:57:37;12.17;;;2.23;;
22417;SDS011;11376;50.932;4.442;2023-04-12T10:00:05;16.63;;;1.97;;
22417;SDS011;11376;50.932;4.442;2023-04-12T10:02:36;13.20;;;1.80;;
22417;SDS011;11376;50.932;4.442;2023-04-12T10:05:04;13.77;;;1.97;;
22417;SDS011;11376;50.932;4.442;2023-04-12T10:07:30;14.97;;;1.70;;
22417;SDS011;11376;50.932;4.442;2023-04-12T10:09:57;11.70;;;1.37;;
22417;SDS011;11376;50.932;4.442;2023-04-12T10:12:23;12.97;;;1.83;;
22417;SDS011;11376;50.932;4.442;2023-04-12T10:14:50;10.57;;;1.50;;
22417;SDS011;11376;50.932;4.442;2023-04-12T10:17:16;14.40;;;1.77;;
22417;SDS011;11376;50.932;4.442;2023-04-12T10:19:45;8.93;;;1.60;;
22417;SDS011;11376;50.932;4.442;2023-04-12T10:22:12;10.53;;;1.57;;
22417;SDS011;11376;50.932;4.442;2023-04-12T10:24:37;12.73;;;1.83;;
22417;SDS011;11376;50.932;4.442;2023-04-12T10:27:03;10.00;;;1.60;;
22417;SDS011;11376;50.932;4.442;2023-04-12T10:29:30;9.13;;;1.40;;
22417;SDS011;11376;50.932;4.442;2023-04-12T10:34:51;6.17;;;1.03;;
22417;SDS011;11376;50.932;4.442;2023-04-12T10:37:16;5.77;;;0.70;;
22417;SDS011;11376;50.932;4.442;2023-04-12T10:39:43;7.10;;;1.53;;
22417;SDS011;11376;50.932;4.442;2023-04-12T10:42:14;14.87;;;1.90;;
22417;SDS011;11376;50.932;4.442;2023-04-12T10:44:40;16.60;;;2.27;;
22417;SDS011;11376;50.932;4.442;2023-04-12T10:47:06;10.70;;;1.67;;
22417;SDS011;11376;50.932;4.442;2023-04-12T10:49:33;9.73;;;1.60;;
22417;SDS011;11376;50.932;4.442;2023-04-12T10:56:51;10.23;;;1.77;;
22417;SDS011;11376;50.932;4.442;2023-04-12T10:59:16;12.63;;;1.83;;
22417;SDS011;11376;50.932;4.442;2023-04-12T11:04:37;7.70;;;1.80;;
22417;SDS011;11376;50.932;4.442;2023-04-12T11:07:08;18.17;;;2.10;;
22417;SDS011;11376;50.932;4.442;2023-04-12T11:14:33;11.77;;;1.50;;
22417;SDS011;11376;50.932;4.442;2023-04-12T11:19:36;9.17;;;1.53;;
22417;SDS011;11376;50.932;4.442;2023-04-12T11:22:10;11.70;;;1.70;;
22417;SDS011;11376;50.932;4.442;2023-04-12T11:24:58;6.73;;;1.50;;
22417;SDS011;11376;50.932;4.442;2023-04-12T11:27:24;9.43;;;1.80;;
22417;SDS011;11376;50.932;4.442;2023-04-12T11:29:52;10.57;;;1.53;;
22417;SDS011;11376;50.932;4.442;2023-04-12T11:32:22;7.68;;;1.38;;
22417;SDS011;11376;50.932;4.442;2023-04-12T11:34:50;11.82;;;1.50;;
22417;SDS011;11376;50.932;4.442;2023-04-12T11:37:17;9.38;;;2.00;;
22417;SDS011;11376;50.932;4.442;2023-04-12T11:39:44;11.55;;;1.50;;
22417;SDS011;11376;50.932;4.442;2023-04-12T11:42:15;11.00;;;1.70;;
22417;SDS011;11376;50.932;4.442;2023-04-12T11:44:45;8.00;;;1.43;;
22417;SDS011;11376;50.932;4.442;2023-04-12T11:47:12;7.50;;;0.80;;
22417;SDS011;11376;50.932;4.442;2023-04-12T11:49:42;12.23;;;1.70;;
22417;SDS011;11376;50.932;4.442;2023-04-12T11:52:08;13.70;;;2.13;;
22417;SDS011;11376;50.932;4.442;2023-04-12T11:54:34;11.03;;;1.80;;
22417;SDS011;11376;50.932;4.442;2023-04-12T11:56:59;8.90;;;1.57;;
22417;SDS011;11376;50.932;4.442;2023-04-12T11:59:32;10.50;;;1.50;;
22417;SDS011;11376;50.932;4.442;2023-04-12T12:02:00;8.10;;;1.00;;
22417;SDS011;11376;50.932;4.442;2023-04-12T12:04:28;5.73;;;0.80;;
22417;SDS011;11376;50.932;4.442;2023-04-12T12:06:55;5.13;;;0.90;;
22417;SDS011;11376;50.932;4.442;2023-04-12T12:09:21;4.70;;;0.80;;
22417;SDS011;11376;50.932;4.442;2023-04-12T12:11:48;11.10;;;1.20;;
22417;SDS011;11376;50.932;4.442;2023-04-12T12:14:18;7.33;;;1.20;;
22417;SDS011;11376;50.932;4.442;2023-04-12T12:16:52;6.47;;;1.07;;
22417;SDS011;11376;50.932;4.442;2023-04-12T12:19:28;7.20;;;1.00;;
22417;SDS011;11376;50.932;4.442;2023-04-12T12:24:45;11.63;;;1.63;;
22417;SDS011;11376;50.932;4.442;2023-04-12T12:27:56;3.00;;;0.80;;
22417;SDS011;11376;50.932;4.442;2023-04-12T12:30:06;7.17;;;1.07;;
22417;SDS011;11376;50.932;4.442;2023-04-12T12:32:33;4.13;;;0.90;;
22417;SDS011;11376;50.932;4.442;2023-04-12T12:35:01;9.20;;;1.20;;
22417;SDS011;11376;50.932;4.442;2023-04-12T12:37:27;5.80;;;0.77;;
22417;SDS011;11376;50.932;4.442;2023-04-12T12:42:42;7.90;;;1.30;;
22417;SDS011;11376;50.932;4.442;2023-04-12T12:45:12;5.97;;;1.07;;
22417;SDS011;11376;50.932;4.442;2023-04-12T12:47:50;6.30;;;0.90;;
22417;SDS011;11376;50.932;4.442;2023-04-12T12:50:17;5.53;;;0.87;;
22417;SDS011;11376;50.932;4.442;2023-04-12T12:52:46;5.90;;;1.00;;
22417;SDS011;11376;50.932;4.442;2023-04-12T12:55:12;7.97;;;1.33;;
22417;SDS011;11376;50.932;4.442;2023-04-12T12:57:38;5.00;;;0.60;;
22417;SDS011;11376;50.932;4.442;2023-04-12T13:00:05;5.70;;;1.03;;
22417;SDS011;11376;50.932;4.442;2023-04-12T13:02:31;9.50;;;1.27;;
22417;SDS011;11376;50.932;4.442;2023-04-12T13:04:56;9.63;;;1.40;;
22417;SDS011;11376;50.932;4.442;2023-04-12T13:07:22;7.80;;;0.87;;
22417;SDS011;11376;50.932;4.442;2023-04-12T13:09:48;4.77;;;0.50;;
22417;SDS011;11376;50.932;4.442;2023-04-12T13:12:13;3.83;;;0.90;;
22417;SDS011;11376;50.932;4.442;2023-04-12T13:14:40;3.63;;;0.67;;
22417;SDS011;11376;50.932;4.442;2023-04-12T13:17:06;8.97;;;1.40;;
22417;SDS011;11376;50.932;4.442;2023-04-12T13:19:31;10.23;;;1.10;;
22417;SDS011;11376;50.932;4.442;2023-04-12T13:21:57;5.63;;;0.80;;
22417;SDS011;11376;50.932;4.442;2023-04-12T13:24:23;6.10;;;0.77;;
22417;SDS011;11376;50.932;4.442;2023-04-12T13:26:49;10.23;;;0.93;;
22417;SDS011;11376;50.932;4.442;2023-04-12T13:29:15;3.00;;;0.70;;
22417;SDS011;11376;50.932;4.442;2023-04-12T13:31:41;4.47;;;0.77;;
22417;SDS011;11376;50.932;4.442;2023-04-12T13:34:06;2.70;;;0.60;;
22417;SDS011;11376;50.932;4.442;2023-04-12T13:36:32;3.77;;;0.60;;
22417;SDS011;11376;50.932;4.442;2023-04-12T13:38:58;4.73;;;0.97;;
22417;SDS011;11376;50.932;4.442;2023-04-12T13:41:24;5.47;;;0.40;;
22417;SDS011;11376;50.932;4.442;2023-04-12T13:43:50;2.87;;;0.57;;
22417;SDS011;11376;50.932;4.442;2023-04-12T13:46:15;6.30;;;0.90;;
22417;SDS011;11376;50.932;4.442;2023-04-12T13:48:41;5.73;;;0.80;;
22417;SDS011;11376;50.932;4.442;2023-04-12T13:51:07;5.90;;;0.73;;
22417;SDS011;11376;50.932;4.442;2023-04-12T13:53:33;3.13;;;0.63;;
22417;SDS011;11376;50.932;4.442;2023-04-12T13:55:58;6.20;;;0.77;;
22417;SDS011;11376;50.932;4.442;2023-04-12T13:58:24;2.27;;;0.33;;
22417;SDS011;11376;50.932;4.442;2023-04-12T14:00:50;2.83;;;0.40;;
22417;SDS011;11376;50.932;4.442;2023-04-12T14:03:17;1.37;;;0.20;;
22417;SDS011;11376;50.932;4.442;2023-04-12T14:05:43;0.37;;;0.13;;
22417;SDS011;11376;50.932;4.442;2023-04-12T14:08:09;1.80;;;0.30;;
22417;SDS011;11376;50.932;4.442;2023-04-12T14:10:34;1.07;;;0.30;;
22417;SDS011;11376;50.932;4.442;2023-04-12T14:13:00;2.47;;;0.43;;
22417;SDS011;11376;50.932;4.442;2023-04-12T14:15:25;2.30;;;0.40;;
22417;SDS011;11376;50.932;4.442;2023-04-12T14:17:51;4.03;;;0.60;;
22417;SDS011;11376;50.932;4.442;2023-04-12T14:20:16;4.83;;;0.83;;
22417;SDS011;11376;50.932;4.442;2023-04-12T14:22:43;2.03;;;0.50;;
22417;SDS011;11376;50.932;4.442;2023-04-12T14:25:08;6.10;;;0.70;;
22417;SDS011;11376;50.932;4.442;2023-04-12T14:27:35;2.20;;;0.60;;
22417;SDS011;11376;50.932;4.442;2023-04-12T14:30:01;2.80;;;0.70;;
22417;SDS011;11376;50.932;4.442;2023-04-12T14:32:28;3.43;;;0.67;;
22417;SDS011;11376;50.932;4.442;2023-04-12T14:34:54;2.57;;;0.70;;
22417;SDS011;11376;50.932;4.442;2023-04-12T14:37:20;2.07;;;0.53;;
22417;SDS011;11376;50.932;4.442;2023-04-12T14:39:45;3.50;;;0.60;;
22417;SDS011;11376;50.932;4.442;2023-04-12T14:42:11;3.60;;;0.73;;
22417;SDS011;11376;50.932;4.442;2023-04-12T14:44:37;3.30;;;0.55;;
22417;SDS011;11376;50.932;4.442;2023-04-12T14:47:02;2.42;;;0.45;;
22417;SDS011;11376;50.932;4.442;2023-04-12T14:49:28;3.33;;;0.50;;
22417;SDS011;11376;50.932;4.442;2023-04-12T14:51:55;3.90;;;0.75;;
22417;SDS011;11376;50.932;4.442;2023-04-12T14:54:21;2.33;;;0.40;;
22417;SDS011;11376;50.932;4.442;2023-04-12T14:56:46;2.55;;;0.52;;
22417;SDS011;11376;50.932;4.442;2023-04-12T14:59:13;3.40;;;0.75;;
22417;SDS011;11376;50.932;4.442;2023-04-12T15:01:39;3.97;;;0.85;;
22417;SDS011;11376;50.932;4.442;2023-04-12T15:04:05;2.28;;;0.68;;
22417;SDS011;11376;50.932;4.442;2023-04-12T15:06:31;5.20;;;0.70;;
22417;SDS011;11376;50.932;4.442;2023-04-12T15:09:01;7.67;;;0.93;;
22417;SDS011;11376;50.932;4.442;2023-04-12T15:11:28;8.17;;;0.87;;
22417;SDS011;11376;50.932;4.442;2023-04-12T15:13:54;5.00;;;0.70;;
22417;SDS011;11376;50.932;4.442;2023-04-12T15:16:19;7.15;;;0.57;;
22417;SDS011;11376;50.932;4.442;2023-04-12T15:18:45;2.60;;;0.77;;
22417;SDS011;11376;50.932;4.442;2023-04-12T15:21:11;5.32;;;0.55;;